Time;durP1;ratioP1;P1;durP2;ratioP2;P2;SDS_P1;SDS_P2;PMS_P1;PMS_P2;Temp;Humidity;BMP_temperature;BMP_pressure;BME280_temperature;BME280_humidity;BME280_pressure;Samples;Min_cycle;Max_cycle;Signal;HPM_P1;HPM_P2
2022/04/01 00:00:44;;;;;;;6.43;5.63;;;3.80;99.90;;;;;;5010347;28;20661;-77
2022/04/01 00:03:12;;;;;;;6.83;6.13;;;3.90;99.90;;;;;;5024728;28;20225;-76
2022/04/01 00:05:40;;;;;;;7.20;6.50;;;3.80;99.90;;;;;;5022233;28;20288;-76
2022/04/01 00:08:08;;;;;;;7.83;6.57;;;3.80;99.90;;;;;;5007385;28;20205;-77
2022/04/01 00:10:39;;;;;;;7.97;7.20;;;3.70;99.90;;;;;;5007759;28;20206;-77
2022/04/01 00:13:07;;;;;;;10.83;6.53;;;3.80;99.90;;;;;;5006701;28;20225;-77
2022/04/01 00:15:35;;;;;;;7.50;6.40;;;3.80;99.90;;;;;;5008282;28;20240;-77
2022/04/01 00:18:03;;;;;;;7.50;6.80;;;3.80;99.90;;;;;;5013190;28;20202;-80
2022/04/01 00:20:30;;;;;;;7.63;6.87;;;4.00;99.90;;;;;;5013891;28;20222;-76
2022/04/01 00:22:58;;;;;;;7.37;6.77;;;4.00;99.90;;;;;;5005563;28;20219;-76
2022/04/01 00:25:26;;;;;;;8.33;6.53;;;4.00;99.90;;;;;;5010171;28;20212;-76
2022/04/01 00:27:54;;;;;;;7.03;5.90;;;4.10;99.90;;;;;;5011781;28;20204;-76
2022/04/01 00:30:22;;;;;;;8.57;7.30;;;3.90;99.90;;;;;;5005575;28;20196;-76
2022/04/01 00:32:50;;;;;;;7.40;6.70;;;3.90;99.90;;;;;;5005123;28;20232;-76
2022/04/01 00:35:17;;;;;;;8.03;6.77;;;3.90;99.90;;;;;;5009611;28;20680;-76
2022/04/01 00:37:45;;;;;;;6.93;6.17;;;4.00;99.90;;;;;;5009101;28;20577;-77
2022/04/01 00:40:13;;;;;;;6.73;6.07;;;4.00;99.90;;;;;;5022666;28;20213;-76
2022/04/01 00:42:41;;;;;;;7.20;6.37;;;4.00;99.90;;;;;;5023798;28;20225;-77
2022/04/01 00:45:11;;;;;;;6.17;5.67;;;4.00;99.90;;;;;;5027283;28;20203;-77
2022/04/01 00:47:38;;;;;;;5.97;5.47;;;4.10;99.90;;;;;;5028306;28;20200;-76
2022/04/01 00:50:10;;;;;;;6.77;5.80;;;4.00;99.90;;;;;;5026245;28;20205;-76
2022/04/01 00:52:42;;;;;;;6.43;5.83;;;4.00;99.90;;;;;;5012832;28;20708;-78
2022/04/01 00:55:10;;;;;;;6.90;6.07;;;3.80;99.90;;;;;;5014300;28;20211;-76
2022/04/01 00:57:38;;;;;;;6.50;5.90;;;3.70;99.90;;;;;;5011721;28;20196;-77
2022/04/01 01:00:07;;;;;;;7.77;6.07;;;3.70;99.90;;;;;;5012232;28;20200;-76
2022/04/01 01:02:36;;;;;;;7.03;5.90;;;3.70;99.90;;;;;;5009440;28;20216;-76
2022/04/01 01:05:03;;;;;;;6.63;5.93;;;3.50;99.90;;;;;;5010516;28;20203;-76
2022/04/01 01:07:31;;;;;;;6.20;5.70;;;3.50;99.90;;;;;;5008010;28;20196;-76
2022/04/01 01:09:59;;;;;;;8.57;5.90;;;3.60;99.90;;;;;;5029169;28;20191;-76
2022/04/01 01:12:28;;;;;;;6.23;5.63;;;3.70;99.90;;;;;;5008907;28;20233;-77
2022/04/01 01:14:55;;;;;;;6.23;5.63;;;3.90;99.90;;;;;;5006857;28;20221;-76
2022/04/01 01:17:23;;;;;;;6.83;6.13;;;3.90;99.90;;;;;;5008145;28;20199;-77
2022/04/01 01:19:52;;;;;;;5.93;5.33;;;3.80;99.90;;;;;;5011400;28;20211;-79
2022/04/01 01:22:19;;;;;;;6.00;5.40;;;3.80;99.90;;;;;;5025196;28;20218;-76
2022/04/01 01:24:48;;;;;;;5.27;4.87;;;3.80;99.90;;;;;;5007748;28;20205;-76
2022/04/01 01:27:21;;;;;;;5.53;5.03;;;4.00;99.90;;;;;;5024581;28;20207;-76
2022/04/01 01:29:48;;;;;;;9.13;5.20;;;4.00;99.90;;;;;;5008935;28;20199;-77
2022/04/01 01:32:19;;;;;;;5.13;4.63;;;3.60;99.90;;;;;;5002637;28;20588;-76
2022/04/01 01:34:46;;;;;;;5.90;4.73;;;3.70;99.90;;;;;;5004807;28;20207;-78
2022/04/01 01:37:14;;;;;;;4.70;4.30;;;3.90;99.90;;;;;;5009359;28;20211;-76
2022/04/01 01:39:42;;;;;;;4.83;4.43;;;3.90;99.90;;;;;;5008559;28;20200;-76
2022/04/01 01:42:11;;;;;;;5.13;4.63;;;3.80;99.90;;;;;;5013064;28;20653;-77
2022/04/01 01:44:38;;;;;;;5.17;4.30;;;3.90;99.90;;;;;;5009604;28;20206;-76
2022/04/01 01:47:08;;;;;;;4.90;4.40;;;4.00;99.90;;;;;;5006447;28;20211;-76
2022/04/01 01:49:36;;;;;;;4.60;3.70;;;3.90;99.90;;;;;;5002695;28;20199;-76
2022/04/01 01:54:50;;;;;;;3.57;3.27;;;3.70;99.90;;;;;;5023144;28;20294;-76
2022/04/01 01:57:22;;;;;;;4.30;3.90;;;3.60;99.90;;;;;;5008709;28;20196;-77
2022/04/01 01:59:50;;;;;;;3.87;3.57;;;3.50;99.90;;;;;;5008259;28;20197;-76
2022/04/01 02:02:18;;;;;;;3.90;3.50;;;3.50;99.90;;;;;;5002633;28;20682;-76
2022/04/01 02:04:48;;;;;;;4.27;3.77;;;3.60;99.90;;;;;;5012136;28;20206;-77
2022/04/01 02:07:15;;;;;;;5.93;3.57;;;3.50;99.90;;;;;;5000114;28;20214;-76
2022/04/01 02:09:46;;;;;;;3.73;3.10;;;3.60;99.90;;;;;;5010679;28;20203;-76
2022/04/01 02:12:16;;;;;;;3.53;3.23;;;3.70;99.90;;;;;;5008143;28;20564;-76
2022/04/01 02:14:45;;;;;;;4.20;3.23;;;3.80;99.90;;;;;;5018707;28;20204;-76
2022/04/01 02:17:12;;;;;;;3.43;3.07;;;3.70;99.90;;;;;;5026348;28;20212;-76
2022/04/01 02:19:40;;;;;;;3.83;3.50;;;3.60;99.90;;;;;;5004802;28;20200;-76
2022/04/01 02:22:08;;;;;;;4.13;3.73;;;3.60;99.90;;;;;;5027118;28;20205;-76
2022/04/01 02:24:41;;;;;;;4.10;3.70;;;3.40;99.90;;;;;;5001987;28;20208;-76
2022/04/01 02:27:09;;;;;;;3.93;3.57;;;3.40;99.90;;;;;;5008689;28;20215;-77
2022/04/01 02:29:37;;;;;;;4.67;3.63;;;3.20;99.90;;;;;;5012029;28;20569;-76
2022/04/01 02:32:21;;;;;;;3.90;3.53;;;3.30;99.90;;;;;;5016334;28;20226;-76
2022/04/01 02:35:10;;;;;;;4.60;4.20;;;3.40;99.90;;;;;;5022425;28;20205;-76
2022/04/01 02:37:40;;;;;;;3.87;3.57;;;3.40;99.90;;;;;;5008707;28;20221;-76
2022/04/01 02:40:11;;;;;;;3.97;3.67;;;3.50;99.90;;;;;;5004091;28;20195;-75
2022/04/01 02:42:39;;;;;;;4.27;3.87;;;3.20;99.90;;;;;;5025641;28;20581;-76
2022/04/01 02:45:09;;;;;;;3.83;3.53;;;3.30;99.90;;;;;;5008428;28;20193;-76
2022/04/01 02:47:38;;;;;;;3.90;3.50;;;3.10;99.90;;;;;;5006734;28;20204;-76
2022/04/01 02:50:10;;;;;;;3.93;3.33;;;3.10;99.90;;;;;;5027007;28;20196;-78
2022/04/01 02:52:37;;;;;;;5.37;3.57;;;3.20;99.90;;;;;;5006803;28;20226;-76
2022/04/01 02:55:09;;;;;;;3.77;3.47;;;3.10;99.90;;;;;;5025103;28;20214;-76
2022/04/01 02:57:37;;;;;;;3.93;3.63;;;3.10;99.90;;;;;;5006444;28;20233;-76
2022/04/01 03:00:09;;;;;;;4.27;3.87;;;3.20;99.90;;;;;;5011394;28;20210;-78
2022/04/01 03:02:38;;;;;;;3.40;3.10;;;3.30;99.90;;;;;;5004943;28;20221;-76
2022/04/01 03:05:07;;;;;;;3.83;3.30;;;3.30;99.90;;;;;;5007034;28;20199;-77
2022/04/01 03:07:35;;;;;;;3.60;3.30;;;3.40;99.90;;;;;;5009003;28;20191;-76
2022/04/01 03:10:03;;;;;;;4.17;3.77;;;3.50;99.90;;;;;;5022747;28;20670;-76
2022/04/01 03:12:33;;;;;;;3.63;3.33;;;3.50;99.90;;;;;;5003501;28;20227;-76
2022/04/01 03:15:24;;;;;;;3.80;3.50;;;3.30;99.90;;;;;;5005204;28;20203;-76
2022/04/01 03:18:11;;;;;;;9.97;3.73;;;3.30;99.90;;;;;;5013670;28;20203;-75
2022/04/01 03:20:45;;;;;;;3.90;3.60;;;3.20;99.90;;;;;;5025536;28;20205;-76
2022/04/01 03:23:12;;;;;;;4.13;3.30;;;3.40;99.90;;;;;;5010087;28;20227;-76
2022/04/01 03:25:42;;;;;;;3.20;2.90;;;3.30;99.90;;;;;;5002532;28;20196;-76
2022/04/01 03:28:22;;;;;;;3.77;3.47;;;3.20;99.90;;;;;;5010068;28;20229;-76
2022/04/01 03:30:54;;;;;;;3.63;3.33;;;3.10;99.90;;;;;;5008295;28;20214;-76
2022/04/01 03:33:28;;;;;;;3.47;3.13;;;3.00;99.90;;;;;;5006742;28;20226;-76
2022/04/01 03:35:56;;;;;;;3.33;3.10;;;3.10;99.90;;;;;;5009041;28;20231;-76
2022/04/01 03:38:27;;;;;;;3.17;2.87;;;3.00;99.90;;;;;;5007827;28;20205;-76
2022/04/01 03:40:56;;;;;;;3.00;2.80;;;2.90;99.90;;;;;;5005870;28;20537;-76
2022/04/01 03:43:26;;;;;;;2.90;2.70;;;3.10;99.90;;;;;;4996073;28;20222;-76
2022/04/01 03:45:59;;;;;;;3.50;3.20;;;2.90;99.90;;;;;;5026191;28;20209;-77
2022/04/01 03:48:35;;;;;;;2.97;2.77;;;3.10;99.90;;;;;;5007155;28;20690;-76
2022/04/01 03:51:04;;;;;;;3.43;3.13;;;3.10;99.90;;;;;;5008884;28;20207;-76
2022/04/01 03:53:35;;;;;;;3.07;2.83;;;3.20;99.90;;;;;;5006212;28;20226;-76
2022/04/01 03:56:08;;;;;;;2.87;2.67;;;3.10;99.90;;;;;;5010023;28;20207;-76
2022/04/01 03:59:17;;;;;;;3.00;2.80;;;3.10;99.90;;;;;;5049471;28;20194;-76
2022/04/01 04:02:03;;;;;;;3.13;2.87;;;3.10;99.90;;;;;;5046399;28;20201;-74
2022/04/01 04:04:35;;;;;;;3.73;2.80;;;3.00;99.90;;;;;;5011961;28;20203;-74
2022/04/01 04:07:07;;;;;;;3.00;2.70;;;3.20;99.90;;;;;;5004510;28;20200;-74
2022/04/01 04:09:40;;;;;;;3.13;2.80;;;3.10;99.90;;;;;;5007107;28;20203;-74
2022/04/01 04:12:12;;;;;;;3.27;3.07;;;2.90;99.90;;;;;;5019074;28;20567;-74
2022/04/01 04:14:45;;;;;;;2.60;2.40;;;2.80;99.90;;;;;;5012301;28;20218;-74
2022/04/01 04:17:24;;;;;;;3.63;3.17;;;2.90;99.90;;;;;;5024717;28;20212;-74
2022/04/01 04:20:03;;;;;;;2.80;2.60;;;2.80;99.90;;;;;;5023382;28;20215;-74
2022/04/01 04:22:47;;;;;;;3.07;2.87;;;2.90;99.90;;;;;;4996368;28;20216;-74
2022/04/01 04:25:22;;;;;;;3.23;2.93;;;3.00;99.90;;;;;;5005522;28;20199;-74
2022/04/01 04:27:57;;;;;;;3.10;2.90;;;3.10;99.90;;;;;;5005187;28;20203;-74
2022/04/01 04:30:32;;;;;;;3.20;2.90;;;3.20;99.90;;;;;;5007476;28;20210;-74
2022/04/01 04:33:29;;;;;;;3.23;2.93;;;3.00;99.90;;;;;;5001218;28;20227;-74
2022/04/01 04:36:04;;;;;;;4.13;3.73;;;3.10;99.90;;;;;;5003061;28;20715;-74
2022/04/01 04:38:38;;;;;;;3.80;3.47;;;3.20;99.90;;;;;;5007731;28;20185;-73
2022/04/01 04:41:09;;;;;;;3.80;3.50;;;3.10;99.90;;;;;;5013043;28;20209;-74
2022/04/01 04:43:44;;;;;;;3.90;3.27;;;3.10;99.90;;;;;;5011245;28;20248;-74
2022/04/01 04:46:15;;;;;;;3.83;3.53;;;3.10;99.90;;;;;;5006709;28;20214;-74
2022/04/01 04:48:43;;;;;;;3.60;3.30;;;2.80;99.90;;;;;;5009630;28;20212;-74
2022/04/01 04:51:12;;;;;;;4.10;3.70;;;2.80;99.90;;;;;;5008424;28;20199;-74
2022/04/01 04:54:01;;;;;;;4.67;3.47;;;2.80;99.90;;;;;;5008696;28;20237;-74
2022/04/01 04:56:50;;;;;;;3.70;3.40;;;2.90;99.90;;;;;;5022261;28;20196;-74
2022/04/01 04:59:18;;;;;;;3.93;3.63;;;3.00;99.90;;;;;;5026854;28;20196;-74
2022/04/01 05:01:55;;;;;;;4.07;3.70;;;2.90;99.90;;;;;;5029009;28;20212;-74
2022/04/01 05:04:42;;;;;;;4.93;3.90;;;2.70;99.90;;;;;;5005503;28;20215;-74
2022/04/01 05:07:26;;;;;;;4.17;3.77;;;2.80;99.90;;;;;;5005874;28;20196;-74
2022/04/01 05:10:16;;;;;;;3.70;3.40;;;3.10;99.90;;;;;;5012967;28;20192;-74
2022/04/01 05:12:54;;;;;;;4.30;3.67;;;3.00;99.90;;;;;;5022031;28;20226;-74
2022/04/01 05:15:54;;;;;;;4.40;3.80;;;3.00;99.90;;;;;;5007226;28;20209;-74
2022/04/01 05:18:33;;;;;;;3.63;3.33;;;3.00;99.90;;;;;;5010498;28;20220;-74
2022/04/01 05:21:04;;;;;;;3.90;3.37;;;3.00;99.90;;;;;;5023814;28;20206;-74
2022/04/01 05:23:44;;;;;;;3.50;3.20;;;3.20;99.90;;;;;;5010729;28;20219;-74
2022/04/01 05:26:15;;;;;;;3.40;3.10;;;3.90;99.90;;;;;;5021399;28;20206;-74
2022/04/01 05:29:03;;;;;;;3.60;3.30;;;5.80;99.90;;;;;;5012211;28;20192;-74
2022/04/01 05:31:37;;;;;;;3.77;3.47;;;5.00;99.90;;;;;;5012408;28;20202;-74
2022/04/01 05:34:13;;;;;;;5.17;3.50;;;4.20;99.90;;;;;;5007215;28;20223;-74
2022/04/01 05:36:42;;;;;;;3.80;3.30;;;3.90;99.90;;;;;;5003712;28;20210;-74
2022/04/01 05:39:13;;;;;;;4.97;3.53;;;3.60;99.90;;;;;;5003427;28;20658;-74
2022/04/01 05:41:45;;;;;;;4.27;3.40;;;3.50;99.90;;;;;;5011740;28;20198;-74
2022/04/01 05:44:14;;;;;;;5.13;3.87;;;3.40;99.90;;;;;;5007422;28;20227;-74
2022/04/01 05:46:45;;;;;;;4.00;3.60;;;3.30;99.90;;;;;;5011323;28;20215;-74
2022/04/01 05:49:17;;;;;;;3.83;3.53;;;3.30;99.90;;;;;;5026415;28;20208;-74
2022/04/01 05:51:47;;;;;;;3.60;3.23;;;3.10;99.90;;;;;;5010236;28;20195;-74
2022/04/01 05:54:19;;;;;;;3.67;3.37;;;3.10;99.90;;;;;;5010157;28;20239;-74
2022/04/01 05:56:48;;;;;;;4.00;3.60;;;3.20;99.90;;;;;;5012691;28;20195;-74
2022/04/01 05:59:16;;;;;;;2.97;2.77;;;3.20;99.90;;;;;;5009627;28;20192;-74
2022/04/01 06:01:52;;;;;;;3.60;3.30;;;3.00;99.90;;;;;;5007913;28;20200;-74
2022/04/01 06:05:01;;;;;;;3.67;3.37;;;3.00;99.90;;;;;;5026061;28;20195;-74
2022/04/01 06:07:39;;;;;;;3.00;2.70;;;2.90;99.90;;;;;;5009734;28;20557;-75
2022/04/01 06:10:37;;;;;;;3.30;3.00;;;2.80;99.90;;;;;;5012716;28;20187;-74
2022/04/01 06:13:47;;;;;;;4.00;3.60;;;2.90;99.90;;;;;;5045131;28;20283;-74
2022/04/01 06:16:46;;;;;;;3.33;3.03;;;2.90;99.90;;;;;;5009487;28;20200;-74
2022/04/01 06:19:25;;;;;;;3.27;2.97;;;3.00;99.90;;;;;;5005914;28;20195;-74
2022/04/01 06:22:03;;;;;;;3.37;3.07;;;3.00;99.90;;;;;;5007336;28;20203;-74
2022/04/01 06:24:45;;;;;;;5.50;3.27;;;3.00;99.90;;;;;;5008631;28;20207;-74
2022/04/01 06:27:21;;;;;;;3.30;3.00;;;2.80;99.90;;;;;;5008781;28;20199;-74
2022/04/01 06:29:58;;;;;;;3.37;3.07;;;2.80;99.90;;;;;;5004649;28;20215;-74
2022/04/01 06:32:33;;;;;;;3.73;3.40;;;2.80;99.90;;;;;;5009573;28;20716;-74
2022/04/01 06:35:05;;;;;;;3.90;3.50;;;2.70;99.90;;;;;;5007552;28;20196;-74
2022/04/01 06:37:58;;;;;;;3.57;3.27;;;2.80;99.90;;;;;;5016357;28;20232;-76
2022/04/01 06:40:30;;;;;;;3.67;3.37;;;2.80;99.90;;;;;;5027482;28;20198;-78
2022/04/01 06:42:59;;;;;;;3.60;3.23;;;2.90;99.90;;;;;;5008742;28;20238;-76
2022/04/01 06:45:49;;;;;;;3.67;3.37;;;2.80;99.90;;;;;;5010193;28;20212;-75
2022/04/01 06:48:48;;;;;;;3.60;3.30;;;2.80;99.90;;;;;;5022862;28;20610;-75
2022/04/01 06:51:36;;;;;;;3.33;3.03;;;2.80;99.90;;;;;;5010834;28;20195;-76
2022/04/01 06:54:22;;;;;;;4.20;3.80;;;2.90;99.90;;;;;;5012242;28;20195;-76
2022/04/01 06:57:16;;;;;;;3.73;3.33;;;2.90;99.90;;;;;;5016972;28;20652;-76
2022/04/01 07:00:02;;;;;;;3.60;3.30;;;3.00;99.90;;;;;;5017885;28;20708;-76
2022/04/01 07:02:29;;;;;;;3.73;3.37;;;3.00;99.90;;;;;;5018595;28;20236;-73
2022/04/01 07:04:57;;;;;;;5.07;3.97;;;3.00;99.90;;;;;;5008289;28;20215;-74
2022/04/01 07:07:24;;;;;;;3.60;3.30;;;3.00;99.90;;;;;;5020012;28;20202;-74
2022/04/01 07:10:11;;;;;;;3.93;3.37;;;3.00;99.90;;;;;;5001957;28;20673;-76
2022/04/01 07:12:39;;;;;;;4.17;3.10;;;2.80;99.90;;;;;;5007712;28;20711;-76
2022/04/01 07:15:10;;;;;;;4.30;3.90;;;2.70;99.90;;;;;;5006953;28;20220;-74
2022/04/01 07:17:47;;;;;;;4.10;3.70;;;2.80;99.90;;;;;;5001414;28;20203;-75
2022/04/01 07:20:15;;;;;;;4.00;3.43;;;3.00;99.90;;;;;;5003235;28;20197;-74
2022/04/01 07:22:43;;;;;;;4.43;3.80;;;2.90;99.90;;;;;;5008656;28;20232;-74
2022/04/01 07:25:11;;;;;;;3.40;3.10;;;2.80;99.90;;;;;;5003323;28;20733;-74
2022/04/01 07:27:39;;;;;;;3.70;3.30;;;2.90;99.90;;;;;;5023091;28;20204;-74
2022/04/01 07:30:10;;;;;;;3.80;3.50;;;3.00;99.90;;;;;;5002981;28;20203;-75
2022/04/01 07:32:39;;;;;;;4.60;4.17;;;2.90;99.90;;;;;;5018682;28;20220;-75
2022/04/01 07:35:10;;;;;;;4.10;3.70;;;3.00;99.90;;;;;;5002710;28;20199;-75
2022/04/01 07:38:00;;;;;;;5.13;3.53;;;2.80;99.90;;;;;;5022880;28;20199;-74
2022/04/01 07:40:28;;;;;;;3.83;3.47;;;2.80;99.90;;;;;;5010399;28;20206;-76
2022/04/01 07:43:00;;;;;;;4.20;3.80;;;2.80;99.90;;;;;;5003830;28;20228;-75
2022/04/01 07:45:33;;;;;;;3.80;3.40;;;2.80;99.90;;;;;;5001385;28;20204;-74
2022/04/01 07:48:02;;;;;;;3.57;3.27;;;2.90;99.90;;;;;;4994860;28;20200;-74
2022/04/01 07:50:30;;;;;;;3.90;3.50;;;3.00;99.90;;;;;;5005082;28;20203;-74
2022/04/01 07:52:57;;;;;;;4.10;3.43;;;2.80;99.90;;;;;;5008476;28;20223;-75
2022/04/01 07:55:24;;;;;;;3.80;3.27;;;2.80;99.90;;;;;;5004285;28;20207;-74
2022/04/01 07:57:57;;;;;;;4.00;3.43;;;2.80;99.90;;;;;;5006400;28;20215;-75
2022/04/01 08:00:53;;;;;;;4.10;3.63;;;2.70;99.90;;;;;;5009915;28;20201;-73
2022/04/01 08:03:20;;;;;;;6.47;3.77;;;2.70;99.90;;;;;;5004046;28;20593;-73
2022/04/01 08:05:48;;;;;;;4.10;3.70;;;2.70;99.90;;;;;;5010249;28;20214;-73
2022/04/01 08:08:15;;;;;;;4.57;4.00;;;2.70;99.90;;;;;;5011026;28;20199;-73
2022/04/01 08:10:42;;;;;;;4.43;3.50;;;2.60;99.90;;;;;;5011377;28;20202;-73
2022/04/01 08:13:11;;;;;;;4.40;4.00;;;2.70;99.90;;;;;;5008961;28;20216;-72
2022/04/01 08:15:39;;;;;;;4.27;3.87;;;2.90;99.90;;;;;;5005117;28;20200;-73
2022/04/01 08:18:07;;;;;;;4.40;4.00;;;2.90;99.90;;;;;;5012296;28;20192;-73
2022/04/01 08:20:35;;;;;;;7.07;4.03;;;2.80;99.90;;;;;;5013463;28;20209;-73
2022/04/01 08:23:03;;;;;;;3.57;3.23;;;2.80;99.90;;;;;;5013197;28;20212;-72
2022/04/01 08:25:30;;;;;;;4.07;3.67;;;2.90;99.90;;;;;;5009761;28;20219;-73
2022/04/01 08:27:58;;;;;;;4.10;3.70;;;2.70;99.90;;;;;;5013331;28;20199;-74
2022/04/01 08:30:25;;;;;;;4.40;3.60;;;2.80;99.90;;;;;;5011126;28;20204;-73
2022/04/01 08:32:52;;;;;;;4.23;3.83;;;2.70;99.90;;;;;;5024653;28;20226;-73
2022/04/01 08:35:21;;;;;;;3.90;3.50;;;2.60;99.90;;;;;;5010807;28;20206;-74
2022/04/01 08:37:49;;;;;;;3.97;3.60;;;2.70;99.90;;;;;;5007232;28;20208;-73
2022/04/01 08:40:17;;;;;;;4.27;3.77;;;2.70;99.90;;;;;;5013692;28;20694;-73
2022/04/01 08:42:47;;;;;;;3.60;3.30;;;2.60;99.90;;;;;;5011061;28;20232;-73
2022/04/01 08:45:18;;;;;;;3.70;3.40;;;2.80;99.90;;;;;;5013257;28;20202;-74
2022/04/01 08:47:45;;;;;;;3.87;3.37;;;2.80;99.90;;;;;;5012896;28;20688;-73
2022/04/01 08:50:13;;;;;;;4.03;3.40;;;2.80;99.90;;;;;;5004443;28;20204;-73
2022/04/01 08:52:42;;;;;;;4.10;3.70;;;2.80;99.90;;;;;;5012117;28;20222;-74
2022/04/01 08:55:11;;;;;;;5.57;3.10;;;2.80;99.90;;;;;;5029253;28;20670;-73
2022/04/01 08:57:39;;;;;;;5.37;3.70;;;2.50;99.90;;;;;;5011325;28;20204;-73
2022/04/01 09:00:34;;;;;;;3.60;3.00;;;2.60;99.90;;;;;;5014963;28;20213;-74
2022/04/01 09:03:03;;;;;;;4.13;3.30;;;2.70;99.90;;;;;;5004951;28;20228;-73
2022/04/01 09:05:31;;;;;;;3.83;3.43;;;2.70;99.90;;;;;;4998531;28;20311;-73
2022/04/01 09:08:05;;;;;;;3.97;3.43;;;2.80;99.90;;;;;;5010302;28;20207;-73
2022/04/01 09:10:50;;;;;;;3.77;3.43;;;2.80;99.90;;;;;;5024607;28;20187;-74
2022/04/01 09:13:18;;;;;;;3.67;3.37;;;2.80;99.90;;;;;;4994660;28;20339;-73
2022/04/01 09:15:46;;;;;;;4.33;3.50;;;2.90;99.90;;;;;;4994106;28;20220;-73
2022/04/01 09:18:13;;;;;;;4.20;3.63;;;3.00;99.90;;;;;;4994536;28;20198;-73
2022/04/01 09:20:45;;;;;;;4.97;3.73;;;3.00;99.90;;;;;;4996144;28;20243;-74
2022/04/01 09:23:13;;;;;;;4.93;3.57;;;3.00;99.90;;;;;;5010559;28;20222;-74
2022/04/01 09:25:48;;;;;;;3.40;3.07;;;3.10;99.90;;;;;;5002402;28;20199;-74
2022/04/01 09:28:26;;;;;;;3.70;3.40;;;3.00;99.90;;;;;;5017096;28;20198;-76
2022/04/01 09:31:10;;;;;;;4.70;3.50;;;2.70;99.90;;;;;;4995881;28;20202;-74
2022/04/01 09:33:48;;;;;;;4.33;3.73;;;2.70;99.90;;;;;;5004303;28;20219;-74
2022/04/01 09:36:18;;;;;;;4.00;3.50;;;2.90;99.90;;;;;;5013401;28;20203;-73
2022/04/01 09:39:01;;;;;;;7.23;4.07;;;3.00;99.90;;;;;;5010042;28;20191;-73
2022/04/01 09:41:31;;;;;;;4.10;3.60;;;3.10;99.90;;;;;;5002838;28;20200;-73
2022/04/01 09:44:07;;;;;;;4.17;3.77;;;2.90;99.90;;;;;;5005627;28;20274;-72
2022/04/01 09:46:35;;;;;;;5.83;4.10;;;2.80;99.90;;;;;;5021069;28;20678;-73
2022/04/01 09:49:03;;;;;;;4.27;3.87;;;2.90;99.90;;;;;;5005380;28;20196;-73
2022/04/01 09:51:31;;;;;;;5.53;4.40;;;2.90;99.90;;;;;;5008270;28;20218;-74
2022/04/01 09:54:06;;;;;;;4.00;3.63;;;2.90;99.90;;;;;;5005587;28;20224;-75
2022/04/01 09:56:44;;;;;;;5.03;3.87;;;2.80;99.90;;;;;;5010525;28;20685;-74
2022/04/01 09:59:13;;;;;;;5.83;4.03;;;2.90;99.90;;;;;;5002766;28;20218;-73
2022/04/01 10:01:42;;;;;;;5.10;4.40;;;3.10;99.90;;;;;;4995995;28;20201;-73
2022/04/01 10:04:10;;;;;;;5.60;4.13;;;3.00;99.90;;;;;;5009043;28;20234;-73
2022/04/01 10:06:39;;;;;;;4.17;3.70;;;3.00;99.90;;;;;;5009526;28;20204;-73
2022/04/01 10:09:14;;;;;;;4.00;3.60;;;3.00;99.90;;;;;;5008954;28;20191;-74
2022/04/01 10:11:43;;;;;;;5.97;4.10;;;2.90;99.90;;;;;;5004628;28;20239;-72
2022/04/01 10:14:13;;;;;;;4.43;3.90;;;2.90;99.90;;;;;;5006636;28;20230;-74
2022/04/01 10:16:43;;;;;;;4.30;3.83;;;3.00;99.90;;;;;;5005898;28;20711;-74
2022/04/01 10:19:14;;;;;;;5.10;3.90;;;3.00;99.90;;;;;;5011412;28;20213;-74
2022/04/01 10:21:45;;;;;;;5.20;3.70;;;3.00;99.90;;;;;;5005767;28;20201;-72
2022/04/01 10:24:28;;;;;;;4.87;4.00;;;2.90;99.90;;;;;;5007918;28;20216;-72
2022/04/01 10:27:10;;;;;;;4.40;4.07;;;2.90;99.90;;;;;;5002050;28;20223;-74
2022/04/01 10:29:38;;;;;;;6.13;4.13;;;3.10;99.90;;;;;;5011746;28;20583;-74
2022/04/01 10:32:26;;;;;;;6.43;4.73;;;3.10;99.90;;;;;;5011769;28;20195;-72
2022/04/01 10:35:23;;;;;;;4.13;3.80;;;3.10;99.90;;;;;;5005116;28;20223;-72
2022/04/01 10:38:15;;;;;;;5.27;4.77;;;3.10;99.90;;;;;;5018549;28;20200;-74
2022/04/01 10:40:46;;;;;;;5.40;4.77;;;3.10;99.90;;;;;;5026882;28;20221;-74
2022/04/01 10:43:19;;;;;;;6.03;4.80;;;3.00;99.90;;;;;;5001781;28;20270;-74
2022/04/01 10:46:07;;;;;;;4.33;3.93;;;3.00;99.90;;;;;;5008399;28;20210;-74
2022/04/01 10:51:37;;;;;;;5.20;4.70;;;3.10;99.90;;;;;;5027035;28;20194;-74
2022/04/01 10:54:43;;;;;;;5.30;4.80;;;3.00;99.90;;;;;;5003869;28;20690;-74
2022/04/01 10:57:14;;;;;;;6.27;5.00;;;2.90;99.90;;;;;;5006662;28;20202;-74
2022/04/01 10:59:42;;;;;;;5.07;4.57;;;3.10;99.90;;;;;;5026943;28;20212;-73
2022/04/01 11:02:13;;;;;;;5.20;4.70;;;3.20;99.90;;;;;;5006362;28;20216;-74
2022/04/01 11:04:41;;;;;;;5.47;4.97;;;3.10;99.90;;;;;;5006439;28;20198;-73
2022/04/01 11:07:11;;;;;;;5.43;4.93;;;3.20;99.90;;;;;;5022820;28;20682;-71
2022/04/01 11:09:47;;;;;;;5.47;4.87;;;3.10;99.90;;;;;;5010988;28;20197;-74
2022/04/01 11:12:36;;;;;;;4.97;4.33;;;3.00;99.90;;;;;;5008369;28;20211;-74
2022/04/01 11:15:24;;;;;;;4.63;4.23;;;3.00;99.90;;;;;;5021884;28;20210;-73
2022/04/01 11:18:08;;;;;;;7.47;4.90;;;3.00;99.90;;;;;;5005692;28;20193;-74
2022/04/01 11:24:04;;;;;;;6.13;4.77;;;3.10;99.90;;;;;;5001320;28;20698;-73
2022/04/01 11:26:41;;;;;;;5.13;4.63;;;2.90;99.90;;;;;;5008972;28;20527;-74
2022/04/01 11:29:19;;;;;;;5.97;4.70;;;2.90;99.90;;;;;;5010887;28;20201;-70
2022/04/01 11:31:47;;;;;;;5.30;4.80;;;3.00;99.90;;;;;;5017268;28;20259;-73
2022/04/01 11:34:14;;;;;;;4.97;4.47;;;3.00;99.90;;;;;;5000097;28;20559;-74
2022/04/01 11:36:42;;;;;;;5.47;4.70;;;2.90;99.90;;;;;;5016297;28;20210;-73
2022/04/01 11:39:16;;;;;;;5.40;4.90;;;2.90;99.90;;;;;;5002553;28;20207;-74
2022/04/01 11:41:54;;;;;;;4.63;4.23;;;3.00;99.90;;;;;;5005815;28;20216;-74
2022/04/01 11:44:24;;;;;;;8.17;5.23;;;2.90;99.90;;;;;;5020950;28;20238;-74
2022/04/01 11:46:58;;;;;;;6.00;5.10;;;3.00;99.90;;;;;;5001276;28;20210;-74
2022/04/01 11:49:29;;;;;;;5.60;4.60;;;3.00;99.90;;;;;;5007362;28;20198;-74
2022/04/01 11:51:57;;;;;;;6.43;5.30;;;2.90;99.90;;;;;;5010460;28;20653;-73
2022/04/01 11:54:28;;;;;;;5.30;4.80;;;3.00;99.90;;;;;;5010250;28;20206;-73
2022/04/01 11:56:56;;;;;;;5.60;5.10;;;3.10;99.90;;;;;;5007963;28;20198;-73
2022/04/01 11:59:26;;;;;;;5.27;4.77;;;3.00;99.90;;;;;;5007439;28;20203;-73
2022/04/01 12:01:57;;;;;;;5.27;4.53;;;2.90;99.90;;;;;;5005115;28;20210;-73
2022/04/01 12:04:35;;;;;;;5.53;4.70;;;2.90;99.90;;;;;;5000640;28;20203;-73
2022/04/01 12:09:59;;;;;;;5.80;5.17;;;2.80;99.90;;;;;;5004072;28;20188;-73
2022/04/01 12:12:27;;;;;;;6.23;4.87;;;2.80;99.90;;;;;;5018444;28;20217;-73
2022/04/01 12:14:57;;;;;;;6.20;5.50;;;2.80;99.90;;;;;;5008562;28;20678;-73
2022/04/01 12:17:28;;;;;;;6.70;5.67;;;3.00;99.90;;;;;;5022877;28;20580;-74
2022/04/01 12:20:16;;;;;;;5.17;4.67;;;3.00;99.90;;;;;;5008776;28;20204;-72
2022/04/01 12:22:43;;;;;;;7.00;4.90;;;3.00;99.90;;;;;;5021348;28;20235;-73
2022/04/01 12:25:11;;;;;;;4.80;4.40;;;2.80;99.90;;;;;;5010097;28;20188;-73
2022/04/01 12:27:52;;;;;;;5.37;4.87;;;2.80;99.90;;;;;;5007162;28;20207;-73
2022/04/01 12:30:35;;;;;;;6.60;5.50;;;2.80;99.90;;;;;;4993394;28;20203;-72
2022/04/01 12:33:07;;;;;;;7.40;5.53;;;2.90;99.90;;;;;;5014333;28;20223;-71
2022/04/01 12:35:55;;;;;;;7.70;5.33;;;2.90;99.90;;;;;;5006489;28;20550;-74
2022/04/01 12:38:32;;;;;;;6.57;4.77;;;2.80;99.90;;;;;;5010750;28;20183;-73
2022/04/01 12:41:02;;;;;;;7.40;5.03;;;2.90;99.90;;;;;;5011996;28;20204;-73
2022/04/01 12:43:43;;;;;;;5.13;4.67;;;2.80;99.90;;;;;;5024453;28;20227;-73
2022/04/01 12:46:13;;;;;;;7.07;5.13;;;3.00;99.90;;;;;;5002433;28;20207;-73
2022/04/01 12:48:59;;;;;;;6.70;5.23;;;3.00;99.90;;;;;;5015408;28;20232;-74
2022/04/01 12:52:12;;;;;;;5.93;5.33;;;3.00;99.90;;;;;;5030605;28;20565;-73
2022/04/01 12:55:01;;;;;;;6.40;5.03;;;3.00;99.90;;;;;;5012127;28;20188;-74
2022/04/01 12:57:51;;;;;;;5.60;5.10;;;3.00;99.90;;;;;;5026907;28;20199;-73
2022/04/01 13:00:28;;;;;;;5.33;4.83;;;3.00;99.90;;;;;;5011764;28;20180;-73
2022/04/01 13:03:02;;;;;;;5.90;5.30;;;3.00;99.90;;;;;;5012106;28;20734;-74
2022/04/01 13:05:30;;;;;;;6.13;5.27;;;3.10;99.90;;;;;;5019098;28;20203;-74
2022/04/01 13:07:58;;;;;;;5.37;4.70;;;3.00;99.90;;;;;;5019808;28;20654;-72
2022/04/01 13:10:26;;;;;;;5.27;4.77;;;2.90;99.90;;;;;;5026588;28;20576;-73
2022/04/01 13:13:16;;;;;;;6.37;4.87;;;3.00;99.90;;;;;;5024971;28;20223;-73
2022/04/01 13:15:52;;;;;;;6.70;4.80;;;3.10;99.90;;;;;;5040578;28;20221;-73
2022/04/01 13:18:27;;;;;;;5.30;4.80;;;2.90;99.90;;;;;;5029287;28;20199;-74
2022/04/01 13:20:54;;;;;;;5.43;4.70;;;3.10;99.90;;;;;;5021361;28;20215;-74
2022/04/01 13:23:22;;;;;;;5.33;4.83;;;2.80;99.90;;;;;;5021469;28;20218;-73
2022/04/01 13:25:52;;;;;;;6.03;5.33;;;2.90;99.90;;;;;;5019388;28;20221;-73
2022/04/01 13:28:28;;;;;;;5.83;5.20;;;3.10;99.90;;;;;;5014568;28;20207;-73
2022/04/01 13:30:59;;;;;;;5.63;5.03;;;3.20;99.90;;;;;;5018152;28;20214;-74
2022/04/01 13:33:30;;;;;;;5.90;5.17;;;3.10;99.90;;;;;;5012179;28;20235;-74
2022/04/01 13:35:59;;;;;;;6.83;5.27;;;3.10;99.90;;;;;;5018685;28;20197;-73
2022/04/01 13:38:34;;;;;;;5.63;5.10;;;3.20;99.90;;;;;;5027743;28;20199;-74
2022/04/01 13:41:02;;;;;;;6.27;4.90;;;3.30;99.90;;;;;;5021630;28;20203;-74
2022/04/01 13:43:29;;;;;;;6.60;5.60;;;3.30;99.90;;;;;;5029776;28;20226;-73